Time;durP1;ratioP1;P1;durP2;ratioP2;P2;SDS_P1;SDS_P2;PMS_P1;PMS_P2;Temp;Humidity;BMP_temperature;BMP_pressure;BME280_temperature;BME280_humidity;BME280_pressure;Samples;Min_cycle;Max_cycle;Signal;HPM_P1;HPM_P2
2022/09/02 00:01:01;;;;;;;1.90;0.70;;;14.60;70.70;;;;;;4942230;29;21019;-68
2022/09/02 00:03:33;;;;;;;1.73;0.90;;;14.60;70.70;;;;;;4912098;29;20048;-68
2022/09/02 00:06:00;;;;;;;1.93;0.63;;;14.50;70.60;;;;;;4922505;29;20323;-68
2022/09/02 00:08:26;;;;;;;2.13;0.80;;;14.50;70.40;;;;;;4932066;29;20422;-68
2022/09/02 00:10:52;;;;;;;5.87;0.77;;;14.60;70.30;;;;;;4944084;28;20291;-68
2022/09/02 00:13:20;;;;;;;1.33;0.63;;;14.50;70.00;;;;;;4950517;28;20689;-68
2022/09/02 00:15:47;;;;;;;2.10;0.70;;;14.50;70.00;;;;;;4908177;29;20054;-68
2022/09/02 00:18:14;;;;;;;2.00;0.93;;;14.50;69.90;;;;;;4922124;29;20296;-68
2022/09/02 00:20:42;;;;;;;2.53;0.70;;;14.40;69.80;;;;;;4926664;29;20307;-68
2022/09/02 00:23:09;;;;;;;2.60;0.70;;;14.40;69.90;;;;;;4932356;29;20303;-68
2022/09/02 00:25:36;;;;;;;3.70;0.97;;;14.40;69.80;;;;;;4926374;29;20293;-68
2022/09/02 00:28:03;;;;;;;1.80;0.70;;;14.30;69.80;;;;;;4920274;29;20292;-68
2022/09/02 00:30:28;;;;;;;1.23;0.80;;;14.40;69.50;;;;;;4925745;29;20299;-68
2022/09/02 00:32:54;;;;;;;1.83;0.70;;;14.30;69.40;;;;;;4922019;29;20659;-68
2022/09/02 00:35:20;;;;;;;1.07;0.60;;;14.30;69.20;;;;;;4898135;29;20040;-68
2022/09/02 00:37:46;;;;;;;2.23;0.73;;;14.30;69.00;;;;;;4918410;29;20077;-68
2022/09/02 00:40:13;;;;;;;1.83;0.60;;;14.30;69.00;;;;;;4932873;29;20326;-68
2022/09/02 00:42:39;;;;;;;2.27;0.77;;;14.30;68.90;;;;;;4912288;29;21277;-68
2022/09/02 00:45:06;;;;;;;3.00;0.60;;;14.30;68.80;;;;;;4913534;29;20321;-68
2022/09/02 00:47:33;;;;;;;2.30;1.17;;;14.30;68.80;;;;;;4916148;29;20291;-68
2022/09/02 00:49:59;;;;;;;1.90;0.90;;;14.20;68.90;;;;;;4925699;29;20818;-68
2022/09/02 00:52:36;;;;;;;1.93;0.70;;;14.20;68.80;;;;;;4936438;29;20466;-68
2022/09/02 00:55:14;;;;;;;1.87;0.60;;;14.20;68.80;;;;;;4932219;29;20303;-68
2022/09/02 00:57:46;;;;;;;1.53;0.70;;;14.20;68.70;;;;;;4940265;28;20368;-68
2022/09/02 01:00:16;;;;;;;1.37;0.73;;;14.10;68.60;;;;;;4931575;29;20312;-68
2022/09/02 01:02:50;;;;;;;1.80;0.70;;;14.10;68.70;;;;;;4923867;29;21150;-68
2022/09/02 01:05:18;;;;;;;2.13;0.80;;;14.10;68.70;;;;;;4928729;29;20663;-68
2022/09/02 01:07:45;;;;;;;1.90;0.70;;;14.00;68.80;;;;;;4912596;29;20506;-68
2022/09/02 01:10:16;;;;;;;2.80;0.70;;;14.00;69.00;;;;;;4927408;29;20867;-68
2022/09/02 01:12:42;;;;;;;2.37;0.73;;;14.00;68.80;;;;;;4902246;29;20320;-68
2022/09/02 01:15:10;;;;;;;2.00;0.80;;;14.00;68.70;;;;;;4928297;29;20294;-68
2022/09/02 01:17:42;;;;;;;1.00;0.77;;;13.90;68.80;;;;;;4922696;29;20359;-68
2022/09/02 01:20:13;;;;;;;1.93;0.60;;;13.90;68.70;;;;;;4926535;29;20368;-68
2022/09/02 01:22:41;;;;;;;2.60;0.97;;;13.90;68.80;;;;;;4926849;29;20291;-68
2022/09/02 01:25:18;;;;;;;1.90;0.57;;;13.90;68.80;;;;;;4910931;29;20370;-68
2022/09/02 01:27:44;;;;;;;1.40;0.60;;;13.80;68.90;;;;;;4918778;29;20287;-68
2022/09/02 01:30:17;;;;;;;1.43;0.80;;;13.80;68.80;;;;;;4910150;29;20300;-68
2022/09/02 01:32:43;;;;;;;2.40;0.50;;;13.80;68.80;;;;;;4948848;28;20306;-68
2022/09/02 01:35:10;;;;;;;1.90;0.60;;;13.80;68.70;;;;;;4918319;29;20352;-68
2022/09/02 01:37:38;;;;;;;3.03;0.70;;;13.80;68.90;;;;;;4928950;29;20416;-68
2022/09/02 01:40:06;;;;;;;2.20;0.60;;;13.70;69.10;;;;;;4896823;29;20308;-68
2022/09/02 01:42:32;;;;;;;2.10;0.80;;;13.70;69.20;;;;;;4917247;29;20323;-68
2022/09/02 01:44:57;;;;;;;1.70;0.90;;;13.60;69.40;;;;;;4916054;29;20829;-68
2022/09/02 01:47:25;;;;;;;2.67;0.87;;;13.60;69.50;;;;;;4916417;29;20054;-68
2022/09/02 01:49:51;;;;;;;2.47;0.70;;;13.60;69.70;;;;;;4925799;29;20051;-68
2022/09/02 01:52:18;;;;;;;3.37;0.70;;;13.60;69.70;;;;;;4919586;29;20299;-68
2022/09/02 01:54:45;;;;;;;1.67;0.73;;;13.60;69.70;;;;;;4926505;29;20052;-68
2022/09/02 01:57:11;;;;;;;1.63;0.90;;;13.60;69.50;;;;;;4930667;29;20298;-68
2022/09/02 01:59:37;;;;;;;1.50;0.80;;;13.60;69.40;;;;;;4905660;29;20327;-68
2022/09/02 02:02:04;;;;;;;2.10;1.10;;;13.60;69.50;;;;;;4912432;29;20322;-68
2022/09/02 02:04:30;;;;;;;2.73;0.80;;;13.50;69.60;;;;;;4903271;29;20170;-68
2022/09/02 02:06:56;;;;;;;2.10;1.00;;;13.50;69.70;;;;;;4930820;29;20370;-68
2022/09/02 02:09:22;;;;;;;1.47;0.87;;;13.40;69.80;;;;;;4903682;29;20074;-68
2022/09/02 02:11:48;;;;;;;1.73;1.03;;;13.40;69.80;;;;;;4925779;29;20323;-68
2022/09/02 02:14:15;;;;;;;1.77;0.80;;;13.40;69.90;;;;;;4922536;29;20294;-68
2022/09/02 02:16:40;;;;;;;2.70;1.00;;;13.40;69.80;;;;;;4928267;29;20288;-68
2022/09/02 02:19:06;;;;;;;1.43;0.80;;;13.30;69.90;;;;;;4907038;29;20326;-68
2022/09/02 02:21:32;;;;;;;1.40;0.70;;;13.30;70.00;;;;;;4911640;29;20159;-68
2022/09/02 02:24:00;;;;;;;1.80;0.80;;;13.30;70.00;;;;;;4919322;29;20044;-68
2022/09/02 02:26:27;;;;;;;3.27;0.93;;;13.20;70.20;;;;;;4922770;29;20287;-68
2022/09/02 02:28:53;;;;;;;1.97;1.00;;;13.20;70.40;;;;;;4933737;29;20295;-68
2022/09/02 02:31:19;;;;;;;1.33;0.70;;;13.20;70.60;;;;;;4895961;29;20368;-68
2022/09/02 02:33:46;;;;;;;2.57;1.00;;;13.10;70.40;;;;;;4897289;29;20047;-68
2022/09/02 02:36:12;;;;;;;3.58;1.17;;;13.10;70.60;;;;;;4915428;29;20075;-68
2022/09/02 02:38:39;;;;;;;2.23;0.90;;;13.00;70.60;;;;;;4915658;29;20086;-68
2022/09/02 02:41:06;;;;;;;1.90;0.90;;;13.00;70.70;;;;;;4904695;29;20350;-67
2022/09/02 02:43:34;;;;;;;1.97;0.90;;;13.00;70.90;;;;;;4926237;29;20039;-67
2022/09/02 02:46:00;;;;;;;2.50;0.85;;;12.90;70.80;;;;;;4930225;29;20308;-67
2022/09/02 02:48:25;;;;;;;2.63;0.90;;;12.90;71.10;;;;;;4930377;29;20442;-67
2022/09/02 02:50:51;;;;;;;3.77;0.87;;;12.90;70.90;;;;;;4920462;29;20040;-67
2022/09/02 02:53:17;;;;;;;1.87;1.13;;;12.90;71.00;;;;;;4940181;28;20043;-67
2022/09/02 02:55:44;;;;;;;3.73;1.00;;;12.90;71.20;;;;;;4906333;29;20292;-67
2022/09/02 02:58:10;;;;;;;2.20;0.90;;;12.90;71.30;;;;;;4906097;29;20284;-67
2022/09/02 03:00:35;;;;;;;1.93;0.80;;;12.90;71.10;;;;;;4913338;29;20832;-67
2022/09/02 03:03:04;;;;;;;2.30;1.00;;;12.80;71.10;;;;;;4925608;29;20095;-67
2022/09/02 03:05:32;;;;;;;1.60;1.17;;;12.80;71.10;;;;;;4925346;29;20044;-67
2022/09/02 03:07:58;;;;;;;1.37;1.00;;;12.80;71.40;;;;;;4910926;29;20296;-67
2022/09/02 03:10:25;;;;;;;1.93;1.33;;;12.70;71.40;;;;;;4927693;29;20299;-67
2022/09/02 03:12:51;;;;;;;3.37;1.10;;;12.70;71.50;;;;;;4930998;29;20294;-67
2022/09/02 03:15:19;;;;;;;1.83;0.90;;;12.70;71.40;;;;;;4937387;29;20307;-67
2022/09/02 03:17:48;;;;;;;2.47;1.20;;;12.70;71.70;;;;;;4932400;29;20044;-67
2022/09/02 03:20:15;;;;;;;1.57;0.70;;;12.70;71.70;;;;;;4913004;29;20816;-68
2022/09/02 03:22:46;;;;;;;1.90;0.87;;;12.60;71.60;;;;;;4912697;29;20300;-68
2022/09/02 03:25:14;;;;;;;2.07;0.90;;;12.70;71.60;;;;;;4912784;29;20329;-68
2022/09/02 03:27:44;;;;;;;2.93;0.90;;;12.70;71.60;;;;;;4927161;29;20848;-68
2022/09/02 03:30:13;;;;;;;3.60;0.90;;;12.70;71.70;;;;;;4900586;29;20292;-67
2022/09/02 03:32:39;;;;;;;2.40;1.10;;;12.70;71.70;;;;;;4914250;29;20283;-67
2022/09/02 03:35:07;;;;;;;1.60;0.90;;;12.80;71.50;;;;;;4915211;29;20291;-67
2022/09/02 03:37:34;;;;;;;1.83;1.00;;;12.80;71.50;;;;;;4917064;29;20059;-68
2022/09/02 03:40:09;;;;;;;2.40;1.15;;;12.80;71.50;;;;;;4925354;29;20701;-68
2022/09/02 03:42:35;;;;;;;2.03;1.00;;;12.80;71.40;;;;;;4917483;29;20059;-68
2022/09/02 03:45:02;;;;;;;2.63;0.90;;;12.80;71.20;;;;;;4910462;29;20037;-68
2022/09/02 03:47:28;;;;;;;1.53;1.00;;;12.80;71.30;;;;;;4903602;29;20572;-68
2022/09/02 03:49:56;;;;;;;1.77;1.00;;;12.80;71.40;;;;;;4912544;29;20296;-68
2022/09/02 03:52:22;;;;;;;1.58;1.00;;;12.80;71.40;;;;;;4941617;28;20858;-67
2022/09/02 03:54:48;;;;;;;1.70;0.90;;;12.70;71.40;;;;;;4912198;29;20110;-68
2022/09/02 03:57:14;;;;;;;1.08;0.80;;;12.70;71.40;;;;;;4931628;29;20292;-68
2022/09/02 03:59:40;;;;;;;2.77;0.80;;;12.70;71.30;;;;;;4912456;29;20079;-67
2022/09/02 04:02:06;;;;;;;4.13;1.23;;;12.70;71.40;;;;;;4931514;29;20287;-67
2022/09/02 04:04:32;;;;;;;1.30;0.73;;;12.60;71.30;;;;;;4917568;29;20413;-67
2022/09/02 04:06:58;;;;;;;3.30;0.80;;;12.50;71.50;;;;;;4933285;29;20040;-67
2022/09/02 04:09:24;;;;;;;2.78;1.17;;;12.50;71.60;;;;;;4914886;29;20043;-67
2022/09/02 04:11:50;;;;;;;2.10;0.97;;;12.50;71.70;;;;;;4882982;29;20066;-67
2022/09/02 04:14:16;;;;;;;3.27;0.90;;;12.50;71.70;;;;;;4888143;29;20050;-67
2022/09/02 04:16:41;;;;;;;2.70;0.80;;;12.40;71.70;;;;;;4943222;29;20295;-67
2022/09/02 04:19:08;;;;;;;2.53;1.00;;;12.40;71.80;;;;;;4899152;29;20042;-67
2022/09/02 04:21:36;;;;;;;4.00;0.90;;;12.50;71.60;;;;;;4921031;29;20120;-67
2022/09/02 04:24:04;;;;;;;2.30;0.70;;;12.40;71.60;;;;;;4926931;29;20551;-67
2022/09/02 04:26:30;;;;;;;2.22;0.90;;;12.40;71.80;;;;;;4908416;29;20039;-68
2022/09/02 04:28:56;;;;;;;2.60;0.87;;;12.40;71.80;;;;;;4916140;29;20035;-67
2022/09/02 04:31:24;;;;;;;2.60;0.90;;;12.30;72.00;;;;;;4935774;29;20039;-68
2022/09/02 04:33:51;;;;;;;2.45;0.75;;;12.30;72.10;;;;;;4934257;28;20055;-68
2022/09/02 04:36:19;;;;;;;3.03;1.15;;;12.30;72.10;;;;;;4909671;29;20054;-67
2022/09/02 04:38:45;;;;;;;1.63;1.10;;;12.30;72.00;;;;;;4928036;29;20542;-67
2022/09/02 04:41:21;;;;;;;1.30;1.02;;;12.30;72.00;;;;;;4947907;28;21105;-67
2022/09/02 04:43:48;;;;;;;1.20;0.90;;;12.30;72.00;;;;;;4926550;29;20407;-68
2022/09/02 04:46:17;;;;;;;2.75;1.30;;;12.30;72.00;;;;;;4906955;29;20893;-68
2022/09/02 04:48:44;;;;;;;3.42;1.05;;;12.30;72.10;;;;;;4914820;29;20067;-67
2022/09/02 04:51:16;;;;;;;3.03;1.17;;;12.20;72.30;;;;;;4932683;29;20102;-67
2022/09/02 04:53:44;;;;;;;2.65;0.88;;;12.20;72.30;;;;;;4915046;29;20047;-67
2022/09/02 04:56:13;;;;;;;1.73;0.98;;;12.30;72.10;;;;;;4924635;29;20044;-67
2022/09/02 04:58:40;;;;;;;1.05;0.90;;;12.20;72.20;;;;;;4918170;29;20111;-67
2022/09/02 05:01:15;;;;;;;2.50;1.20;;;12.20;72.40;;;;;;4925249;29;20055;-67
2022/09/02 05:03:43;;;;;;;1.60;1.17;;;12.20;72.50;;;;;;4905634;29;20046;-68
2022/09/02 05:06:11;;;;;;;3.10;1.20;;;12.20;72.40;;;;;;4917217;29;20040;-67
2022/09/02 05:08:37;;;;;;;1.65;0.90;;;12.20;72.50;;;;;;4949447;28;20071;-67
2022/09/02 05:11:08;;;;;;;1.80;1.00;;;12.20;72.50;;;;;;4910353;29;20044;-67
2022/09/02 05:13:34;;;;;;;2.65;1.23;;;12.20;72.50;;;;;;4929039;29;20048;-67
2022/09/02 05:16:01;;;;;;;2.78;1.13;;;12.20;72.60;;;;;;4927171;29;20288;-67
2022/09/02 05:18:27;;;;;;;1.90;1.20;;;12.20;72.60;;;;;;4944275;28;20050;-67
2022/09/02 05:20:53;;;;;;;1.23;0.97;;;12.20;72.60;;;;;;4920293;29;20362;-67
2022/09/02 05:23:18;;;;;;;2.77;1.20;;;12.20;72.70;;;;;;4925108;29;20039;-67
2022/09/02 05:25:44;;;;;;;4.00;1.03;;;12.20;72.80;;;;;;4897864;29;20394;-67
2022/09/02 05:28:10;;;;;;;1.40;0.90;;;12.20;72.70;;;;;;4933159;29;20488;-67
2022/09/02 05:30:38;;;;;;;1.77;1.00;;;12.20;72.80;;;;;;4930254;29;20094;-67
2022/09/02 05:33:04;;;;;;;2.22;1.35;;;12.20;72.90;;;;;;4920698;29;20075;-67
2022/09/02 05:35:30;;;;;;;2.53;1.48;;;12.30;72.60;;;;;;4902059;29;20126;-67
2022/09/02 05:37:55;;;;;;;1.50;1.10;;;12.40;72.30;;;;;;4927400;29;20122;-67
2022/09/02 05:40:21;;;;;;;2.80;0.90;;;12.40;72.30;;;;;;4908525;29;20039;-67
2022/09/02 05:42:47;;;;;;;3.60;1.20;;;12.40;72.20;;;;;;4909747;29;20043;-67
2022/09/02 05:45:13;;;;;;;1.50;1.30;;;12.50;72.40;;;;;;4912283;29;20528;-67
2022/09/02 05:47:39;;;;;;;4.77;1.40;;;12.50;72.30;;;;;;4905825;29;20032;-67
2022/09/02 05:50:05;;;;;;;2.47;1.13;;;12.60;72.20;;;;;;4915520;29;20074;-67
2022/09/02 05:52:31;;;;;;;1.42;1.00;;;12.60;72.10;;;;;;4913240;29;20099;-67
2022/09/02 05:54:57;;;;;;;2.73;1.30;;;12.70;72.10;;;;;;4914941;29;20074;-67
2022/09/02 05:57:24;;;;;;;1.65;1.10;;;12.70;72.30;;;;;;4923641;29;20055;-67
2022/09/02 05:59:54;;;;;;;1.80;1.07;;;12.80;72.20;;;;;;4912336;29;20052;-67
2022/09/02 06:02:21;;;;;;;4.57;1.00;;;12.90;71.90;;;;;;4928755;29;20808;-67
2022/09/02 06:04:49;;;;;;;2.35;1.00;;;12.90;71.90;;;;;;4920985;29;20366;-67
2022/09/02 06:07:16;;;;;;;3.30;1.43;;;13.00;71.90;;;;;;4910554;29;20050;-67
2022/09/02 06:09:43;;;;;;;1.60;1.00;;;13.10;71.80;;;;;;4945708;28;20768;-67
2022/09/02 06:12:11;;;;;;;1.77;0.90;;;13.10;71.70;;;;;;4939246;28;20300;-67
2022/09/02 06:14:37;;;;;;;3.30;0.97;;;13.20;71.40;;;;;;4921095;29;20289;-67
2022/09/02 06:17:04;;;;;;;2.37;1.10;;;13.30;71.40;;;;;;4936038;29;20295;-67
2022/09/02 06:19:31;;;;;;;4.27;1.30;;;13.30;71.20;;;;;;4901324;29;20044;-67
2022/09/02 06:21:58;;;;;;;3.27;1.00;;;13.40;71.00;;;;;;4936387;29;20294;-67
2022/09/02 06:24:25;;;;;;;2.97;1.10;;;13.50;70.90;;;;;;4909776;29;20284;-67
2022/09/02 06:26:54;;;;;;;3.77;1.47;;;13.70;70.30;;;;;;4927020;29;20284;-68
2022/09/02 06:29:21;;;;;;;1.60;1.03;;;13.80;70.00;;;;;;4904713;29;20303;-68
2022/09/02 06:31:48;;;;;;;1.30;0.90;;;13.90;69.20;;;;;;4924015;29;20696;-68
2022/09/02 06:34:17;;;;;;;3.17;1.50;;;14.00;69.10;;;;;;4924925;29;20292;-68
2022/09/02 06:36:46;;;;;;;1.90;1.20;;;14.10;69.20;;;;;;4938576;29;20287;-68
2022/09/02 06:39:15;;;;;;;4.83;1.10;;;14.30;68.70;;;;;;4911127;29;20331;-68
2022/09/02 06:41:42;;;;;;;3.23;1.00;;;14.30;68.60;;;;;;4923624;29;20307;-68
2022/09/02 06:44:10;;;;;;;3.20;1.43;;;14.40;68.60;;;;;;4905135;29;20295;-68
2022/09/02 06:46:39;;;;;;;2.63;1.13;;;14.50;68.30;;;;;;4913475;29;20299;-68
2022/09/02 06:49:07;;;;;;;1.73;0.80;;;14.70;67.90;;;;;;4903103;29;20283;-68
2022/09/02 06:51:39;;;;;;;4.90;0.90;;;14.80;67.80;;;;;;4921984;29;20628;-68
2022/09/02 06:54:08;;;;;;;3.17;1.10;;;14.90;67.40;;;;;;4928700;29;20288;-68
2022/09/02 06:56:34;;;;;;;1.60;0.93;;;15.00;67.20;;;;;;4910987;29;20685;-68
2022/09/02 06:59:01;;;;;;;2.30;0.93;;;15.10;67.40;;;;;;4907836;29;21758;-68
2022/09/02 07:01:29;;;;;;;3.10;1.20;;;15.30;67.30;;;;;;4925112;29;20303;-68
2022/09/02 07:06:43;;;;;;;1.95;0.70;;;15.60;66.30;;;;;;4932590;28;20298;-68
2022/09/02 07:09:10;;;;;;;2.10;1.10;;;15.70;66.30;;;;;;4929765;29;20028;-68
2022/09/02 07:11:37;;;;;;;3.27;1.00;;;15.80;65.70;;;;;;4905250;28;20371;-68
2022/09/02 07:14:03;;;;;;;4.57;1.63;;;15.90;65.20;;;;;;4895281;29;20319;-68
2022/09/02 07:16:33;;;;;;;3.37;0.80;;;16.10;64.70;;;;;;4912446;29;20288;-68
2022/09/02 07:19:00;;;;;;;2.50;0.97;;;16.20;64.60;;;;;;4929740;28;20350;-68
2022/09/02 07:21:27;;;;;;;1.03;0.63;;;16.30;64.20;;;;;;4951754;28;20366;-68
2022/09/02 07:23:54;;;;;;;2.70;0.93;;;16.40;64.40;;;;;;4929737;29;20810;-68
2022/09/02 07:26:21;;;;;;;1.00;0.70;;;16.50;64.70;;;;;;4911079;28;20298;-68
2022/09/02 07:28:47;;;;;;;2.60;1.00;;;16.70;64.40;;;;;;4914088;28;20283;-68
2022/09/02 07:31:14;;;;;;;3.03;0.97;;;16.80;63.80;;;;;;4910393;28;20297;-68
2022/09/02 07:33:42;;;;;;;2.83;1.10;;;17.00;62.90;;;;;;4925813;29;20050;-68
2022/09/02 07:36:09;;;;;;;1.70;0.73;;;17.10;62.30;;;;;;4915871;28;20324;-67
2022/09/02 07:38:35;;;;;;;1.80;0.80;;;17.20;62.30;;;;;;4898139;29;20282;-67
2022/09/02 07:41:01;;;;;;;1.20;0.80;;;17.20;62.50;;;;;;4908785;28;20310;-67
2022/09/02 07:43:29;;;;;;;0.90;0.60;;;17.30;62.30;;;;;;4901880;29;20804;-67
2022/09/02 07:45:56;;;;;;;1.63;1.00;;;17.40;62.20;;;;;;4929458;28;20330;-68
2022/09/02 07:48:22;;;;;;;3.10;0.80;;;17.60;61.80;;;;;;4904580;29;20291;-68
2022/09/02 07:50:48;;;;;;;3.63;0.80;;;17.70;61.90;;;;;;4916526;28;20306;-68
2022/09/02 07:53:15;;;;;;;1.53;0.93;;;17.80;61.50;;;;;;4919740;29;20306;-68
2022/09/02 07:55:45;;;;;;;2.40;0.90;;;18.00;61.00;;;;;;4918726;28;20667;-68
2022/09/02 07:58:11;;;;;;;2.43;0.80;;;18.10;60.70;;;;;;4947322;28;20326;-68
2022/09/02 08:00:37;;;;;;;2.00;1.10;;;18.30;59.70;;;;;;4931838;29;20398;-68
2022/09/02 08:03:05;;;;;;;3.20;1.00;;;18.30;59.50;;;;;;4912025;29;20354;-68
2022/09/02 08:05:32;;;;;;;1.63;0.93;;;18.40;59.90;;;;;;4916109;29;20385;-67
2022/09/02 08:07:59;;;;;;;1.33;0.67;;;18.50;59.90;;;;;;4917465;29;20267;-67
2022/09/02 08:10:27;;;;;;;1.13;0.80;;;18.60;59.50;;;;;;4922819;29;20917;-68
2022/09/02 08:12:59;;;;;;;4.30;0.70;;;18.80;58.80;;;;;;4898403;29;20317;-68
2022/09/02 08:15:27;;;;;;;1.90;1.00;;;18.90;58.30;;;;;;4928082;29;20290;-67
2022/09/02 08:17:54;;;;;;;2.60;1.00;;;19.00;58.50;;;;;;4917550;28;20441;-67
2022/09/02 08:20:20;;;;;;;2.77;1.10;;;19.10;57.40;;;;;;4911173;28;20404;-68
2022/09/02 08:22:46;;;;;;;1.70;0.87;;;19.20;57.10;;;;;;4918304;28;20283;-68
2022/09/02 08:25:12;;;;;;;3.90;1.40;;;19.30;57.50;;;;;;4898254;29;20036;-68
2022/09/02 08:27:39;;;;;;;4.27;0.73;;;19.40;56.70;;;;;;4930799;29;20219;-68
2022/09/02 08:30:08;;;;;;;1.43;0.70;;;19.60;56.50;;;;;;4913432;28;20318;-68
2022/09/02 08:32:35;;;;;;;1.43;0.70;;;19.70;56.00;;;;;;4928450;28;20345;-68
2022/09/02 08:35:03;;;;;;;3.67;0.73;;;19.80;55.90;;;;;;4920952;28;20287;-68
2022/09/02 08:37:30;;;;;;;2.70;0.70;;;19.90;55.30;;;;;;4911769;28;20353;-68
2022/09/02 08:39:56;;;;;;;4.30;0.80;;;19.90;55.30;;;;;;4899965;29;20306;-68
2022/09/02 08:42:42;;;;;;;3.50;0.97;;;20.00;55.20;;;;;;4924433;28;20283;-68
2022/09/02 08:45:07;;;;;;;;;;;20.10;54.40;;;;;;4928355;29;20283;-69
2022/09/02 08:47:36;;;;;;;3.87;0.97;;;20.20;53.50;;;;;;4923604;28;20335;-68
2022/09/02 08:50:12;;;;;;;4.00;0.60;;;20.30;53.80;;;;;;4919312;29;20107;-69
2022/09/02 08:52:56;;;;;;;2.77;0.43;;;20.50;53.40;;;;;;4928834;29;20699;-69
2022/09/02 08:55:27;;;;;;;3.67;0.60;;;20.60;53.20;;;;;;4935889;28;20689;-68
2022/09/02 08:57:55;;;;;;;1.50;0.60;;;20.70;52.30;;;;;;4930767;29;20830;-69
2022/09/02 09:00:21;;;;;;;2.53;0.47;;;20.70;52.20;;;;;;4913592;29;20395;-68
2022/09/02 09:03:03;;;;;;;2.97;0.50;;;20.70;51.70;;;;;;4929225;29;20051;-68
2022/09/02 09:05:29;;;;;;;1.33;0.70;;;20.80;50.80;;;;;;4927368;29;20052;-68
2022/09/02 09:08:37;;;;;;;2.03;0.67;;;20.80;52.00;;;;;;4928472;29;20368;-68
2022/09/02 09:11:13;;;;;;;2.70;0.60;;;20.80;51.10;;;;;;4925070;29;20051;-69
2022/09/02 09:13:57;;;;;;;2.13;1.20;;;20.90;52.00;;;;;;4924605;29;20524;-68
2022/09/02 09:16:28;;;;;;;3.17;0.40;;;21.10;51.30;;;;;;4931334;29;20050;-68
2022/09/02 09:19:06;;;;;;;3.43;0.50;;;21.30;51.40;;;;;;4909892;29;20040;-68
2022/09/02 09:21:32;;;;;;;2.90;0.60;;;21.40;51.30;;;;;;4924399;29;20696;-69
2022/09/02 09:24:05;;;;;;;2.73;0.53;;;21.60;50.70;;;;;;4890281;29;20142;-69
2022/09/02 09:26:35;;;;;;;0.90;0.50;;;21.80;50.10;;;;;;4923977;29;20046;-68
2022/09/02 09:29:03;;;;;;;1.30;0.50;;;21.90;49.40;;;;;;4922812;29;20831;-68
2022/09/02 09:31:31;;;;;;;3.00;0.40;;;22.00;48.60;;;;;;4898076;29;20215;-68
2022/09/02 09:33:59;;;;;;;1.43;0.30;;;22.10;48.40;;;;;;4921604;29;20078;-68
2022/09/02 09:36:55;;;;;;;2.40;0.57;;;22.20;48.60;;;;;;4943157;28;20075;-69
2022/09/02 09:39:23;;;;;;;0.60;0.32;;;22.30;48.20;;;;;;4914266;29;20058;-69
2022/09/02 09:41:50;;;;;;;1.80;0.40;;;22.40;48.80;;;;;;4925036;29;20043;-69
2022/09/02 09:44:38;;;;;;;1.67;0.40;;;22.40;48.50;;;;;;4927010;29;20050;-69
2022/09/02 09:47:13;;;;;;;2.23;0.57;;;22.60;47.10;;;;;;4926629;29;20103;-69
2022/09/02 09:49:39;;;;;;;;;;;22.60;46.80;;;;;;4914350;29;20476;-69
2022/09/02 09:52:05;;;;;;;0.90;0.40;;;22.70;46.50;;;;;;4906678;29;19923;-68
2022/09/02 09:54:31;;;;;;;1.37;0.60;;;22.80;46.60;;;;;;4907301;29;20044;-68
2022/09/02 09:57:15;;;;;;;1.20;0.47;;;22.90;46.10;;;;;;4912783;29;20048;-69
2022/09/02 09:59:46;;;;;;;1.00;0.20;;;22.90;45.70;;;;;;4919653;29;20661;-69
2022/09/02 10:02:23;;;;;;;0.98;0.35;;;23.00;46.30;;;;;;4913608;29;20433;-69
2022/09/02 10:04:52;;;;;;;0.80;0.32;;;23.10;46.60;;;;;;4914550;29;20597;-69
2022/09/02 10:07:35;;;;;;;0.60;0.20;;;23.30;45.40;;;;;;4931675;29;20142;-69
2022/09/02 10:10:20;;;;;;;4.07;0.43;;;23.30;45.70;;;;;;4924395;29;20051;-68
2022/09/02 10:12:48;;;;;;;1.83;0.30;;;23.40;44.40;;;;;;4929745;29;20062;-69
2022/09/02 10:15:17;;;;;;;4.93;0.40;;;23.40;43.90;;;;;;4918829;29;20050;-69
2022/09/02 10:17:53;;;;;;;1.40;0.40;;;23.40;43.60;;;;;;4947564;28;20055;-68
2022/09/02 10:20:28;;;;;;;2.63;0.30;;;23.50;44.00;;;;;;4930323;29;20183;-68
2022/09/02 10:23:03;;;;;;;2.08;0.40;;;23.60;44.70;;;;;;4915352;29;20044;-69
2022/09/02 10:25:47;;;;;;;1.90;0.40;;;23.70;44.40;;;;;;4912439;29;20059;-68
2022/09/02 10:28:31;;;;;;;3.27;0.30;;;23.90;43.70;;;;;;4926124;29;20103;-68
2022/09/02 10:31:09;;;;;;;1.93;0.40;;;24.00;43.10;;;;;;4915663;29;20044;-69
2022/09/02 10:34:02;;;;;;;2.10;0.40;;;24.10;43.60;;;;;;4912455;29;20810;-69
2022/09/02 10:36:40;;;;;;;1.47;0.30;;;24.10;42.40;;;;;;4913807;29;20667;-69
2022/09/02 10:39:52;;;;;;;1.30;0.40;;;24.10;43.20;;;;;;4928728;29;20404;-69
2022/09/02 10:42:53;;;;;;;1.77;0.30;;;24.20;42.40;;;;;;4879697;29;20054;-69
2022/09/02 10:45:48;;;;;;;1.07;0.47;;;24.20;42.50;;;;;;4930472;29;20048;-69
2022/09/02 10:48:29;;;;;;;2.35;0.47;;;24.20;41.70;;;;;;4915618;29;20374;-69
2022/09/02 10:51:05;;;;;;;0.60;0.50;;;24.30;42.10;;;;;;4928195;29;20071;-68
2022/09/02 10:53:52;;;;;;;1.10;0.30;;;24.30;41.70;;;;;;4927253;29;20054;-68
2022/09/02 10:56:22;;;;;;;2.27;0.27;;;24.30;40.70;;;;;;4914250;29;20568;-68
2022/09/02 10:59:12;;;;;;;1.80;0.37;;;24.30;41.60;;;;;;4916731;29;20053;-69
2022/09/02 11:01:50;;;;;;;1.27;0.30;;;24.30;41.20;;;;;;4909562;29;20051;-69
2022/09/02 11:04:50;;;;;;;1.67;0.43;;;24.30;41.10;;;;;;4908790;29;20145;-69
2022/09/02 11:07:21;;;;;;;1.33;0.30;;;24.50;40.50;;;;;;4916763;29;20182;-69
2022/09/02 11:10:21;;;;;;;3.33;0.30;;;24.60;41.30;;;;;;4931659;29;20449;-69
2022/09/02 11:12:55;;;;;;;2.20;0.27;;;24.80;40.50;;;;;;4936860;29;20568;-69
2022/09/02 11:15:45;;;;;;;3.05;0.65;;;24.90;40.40;;;;;;4915716;29;20433;-69
2022/09/02 11:18:30;;;;;;;4.80;0.53;;;25.00;40.30;;;;;;4926932;29;20122;-69
2022/09/02 11:21:23;;;;;;;2.17;0.35;;;25.10;39.80;;;;;;4910533;29;20127;-68
2022/09/02 11:23:58;;;;;;;1.43;0.30;;;25.10;39.60;;;;;;4911460;29;20316;-68
2022/09/02 11:26:40;;;;;;;2.03;0.40;;;25.10;38.90;;;;;;4912530;29;20079;-69
2022/09/02 11:29:21;;;;;;;2.80;0.40;;;25.10;39.30;;;;;;4938947;28;20040;-69
2022/09/02 11:32:00;;;;;;;1.77;0.30;;;25.10;38.90;;;;;;4916197;29;20184;-69
2022/09/02 11:34:33;;;;;;;1.00;0.30;;;25.00;39.60;;;;;;4926750;29;20056;-69
2022/09/02 11:37:09;;;;;;;1.87;0.30;;;25.00;39.40;;;;;;4929754;29;20047;-69
2022/09/02 11:39:54;;;;;;;1.50;0.20;;;25.00;39.80;;;;;;4929106;29;20113;-69
2022/09/02 11:42:44;;;;;;;1.73;0.40;;;25.00;39.40;;;;;;4913638;29;20048;-69
2022/09/02 11:45:32;;;;;;;1.27;0.30;;;25.00;39.90;;;;;;4911629;29;20043;-68
2022/09/02 11:48:18;;;;;;;2.70;0.40;;;25.10;40.10;;;;;;4911342;29;20334;-69
2022/09/02 11:50:44;;;;;;;1.83;0.50;;;25.30;38.70;;;;;;4909965;29;20048;-69
2022/09/02 11:53:22;;;;;;;1.83;0.40;;;25.40;39.50;;;;;;4906747;29;20735;-69
2022/09/02 11:55:57;;;;;;;2.20;0.50;;;25.50;39.30;;;;;;4929101;29;20508;-69
2022/09/02 11:58:30;;;;;;;;;;;25.50;39.50;;;;;;4924216;29;20044;-68
2022/09/02 12:00:57;;;;;;;2.40;0.30;;;25.60;38.60;;;;;;4931585;29;20405;-68
2022/09/02 12:03:30;;;;;;;1.23;0.40;;;25.60;38.30;;;;;;4926844;29;20090;-68
2022/09/02 12:06:14;;;;;;;1.47;0.40;;;25.70;38.80;;;;;;4913915;29;20409;-68
2022/09/02 12:08:41;;;;;;;4.23;0.30;;;25.80;38.00;;;;;;4915800;29;20510;-68
2022/09/02 12:11:10;;;;;;;1.80;0.20;;;25.90;38.30;;;;;;4903525;29;20499;-68
2022/09/02 12:13:40;;;;;;;1.37;0.40;;;25.90;38.50;;;;;;4923662;29;20051;-68
2022/09/02 12:16:15;;;;;;;2.17;0.50;;;26.00;39.20;;;;;;4915718;29;20076;-68
2022/09/02 12:18:53;;;;;;;1.77;0.40;;;26.20;38.80;;;;;;4906025;29;20123;-68
2022/09/02 12:21:23;;;;;;;1.47;0.30;;;26.40;37.80;;;;;;4908875;29;20048;-68
2022/09/02 12:23:52;;;;;;;2.23;0.47;;;26.40;37.90;;;;;;4911222;29;20091;-68
2022/09/02 12:26:34;;;;;;;2.03;0.43;;;26.30;37.20;;;;;;4930433;28;20151;-68
2022/09/02 12:29:18;;;;;;;2.13;0.53;;;26.30;37.40;;;;;;4932928;29;20385;-68
2022/09/02 12:31:46;;;;;;;3.53;0.40;;;26.30;37.60;;;;;;4927261;29;20535;-68
2022/09/02 12:34:21;;;;;;;1.70;0.50;;;26.40;37.50;;;;;;4911780;29;20524;-69
2022/09/02 12:36:50;;;;;;;0.73;0.30;;;26.50;37.10;;;;;;4932279;29;20122;-68
2022/09/02 12:39:26;;;;;;;2.00;0.30;;;26.60;37.20;;;;;;4915670;29;20063;-68
2022/09/02 12:42:07;;;;;;;2.60;0.53;;;26.60;37.00;;;;;;4927186;29;20060;-68
2022/09/02 12:45:01;;;;;;;0.90;0.40;;;26.70;37.00;;;;;;4940705;29;20055;-68
2022/09/02 12:47:46;;;;;;;2.53;0.73;;;26.60;36.40;;;;;;4917607;29;20047;-68
2022/09/02 12:50:23;;;;;;;1.98;0.40;;;26.70;36.40;;;;;;4919603;29;20070;-68
2022/09/02 12:52:52;;;;;;;1.10;0.20;;;26.70;36.00;;;;;;4936679;29;20068;-68
2022/09/02 12:55:30;;;;;;;2.20;0.47;;;26.60;36.90;;;;;;4923009;29;20568;-68
2022/09/02 12:58:18;;;;;;;2.60;0.60;;;26.70;36.50;;;;;;4924750;29;20095;-68
2022/09/02 13:00:53;;;;;;;2.67;0.50;;;26.70;36.20;;;;;;4929807;29;20424;-68
2022/09/02 13:03:26;;;;;;;;;;;26.80;36.50;;;;;;4911775;29;20111;-68
2022/09/02 13:06:16;;;;;;;4.33;0.50;;;26.90;36.10;;;;;;4934640;29;19926;-69
2022/09/02 13:08:59;;;;;;;0.93;0.43;;;26.90;36.20;;;;;;4919428;29;20054;-69